createdAt,value
2022-10-11T00:00:17.090Z,99.90
2022-10-11T00:03:05.097Z,85.30
2022-10-11T00:05:33.208Z,99.90
2022-10-11T00:08:00.476Z,99.90
2022-10-11T00:10:28.163Z,99.90
2022-10-11T00:12:55.670Z,99.90
2022-10-11T00:15:23.360Z,99.90
2022-10-11T00:17:50.791Z,99.90
2022-10-11T00:20:18.568Z,99.90
2022-10-11T00:22:45.955Z,99.90
2022-10-11T00:25:13.628Z,1.00
2022-10-11T00:27:41.274Z,1.00
2022-10-11T00:30:09.967Z,1.00
2022-10-11T00:32:38.474Z,1.00
2022-10-11T00:35:07.493Z,1.00
2022-10-11T00:37:36.561Z,99.90
2022-10-11T00:40:15.625Z,1.00
2022-10-11T00:42:43.144Z,99.90
2022-10-11T00:45:31.324Z,1.00
2022-10-11T00:48:03.840Z,36.40
2022-10-11T00:50:34.862Z,99.90
2022-10-11T00:53:08.174Z,99.90
2022-10-11T00:55:40.546Z,99.90
2022-10-11T00:58:08.301Z,99.90
2022-10-11T01:00:35.780Z,99.90
2022-10-11T01:03:04.638Z,99.90
2022-10-11T01:05:32.468Z,1.00
2022-10-11T01:08:00.970Z,1.00
2022-10-11T01:10:29.332Z,99.90
2022-10-11T01:13:35.679Z,1.00
2022-10-11T01:16:27.244Z,1.00
2022-10-11T01:19:15.523Z,1.00
2022-10-11T01:21:53.699Z,1.00
2022-10-11T01:25:12.108Z,1.00
2022-10-11T01:28:09.490Z,1.00
2022-10-11T01:30:38.136Z,1.00
2022-10-11T01:33:21.190Z,1.00
2022-10-11T01:36:13.635Z,1.00
2022-10-11T01:38:49.572Z,1.00
2022-10-11T01:41:24.675Z,1.00
2022-10-11T01:43:59.866Z,1.00
2022-10-11T01:46:29.082Z,99.90
2022-10-11T01:49:01.542Z,99.90
2022-10-11T01:51:34.659Z,99.90
2022-10-11T01:54:13.814Z,1.00
2022-10-11T01:56:55.363Z,1.00
2022-10-11T01:59:55.604Z,1.00
2022-10-11T02:02:38.322Z,99.90
2022-10-11T02:05:29.493Z,99.90
2022-10-11T02:08:16.166Z,99.90
2022-10-11T02:10:58.813Z,99.90
2022-10-11T02:13:42.887Z,90.00
2022-10-11T02:16:19.030Z,99.80
2022-10-11T02:18:50.172Z,89.50
2022-10-11T02:21:21.856Z,74.90
2022-10-11T02:24:16.869Z,46.50
2022-10-11T02:26:49.313Z,1.00
2022-10-11T02:29:18.396Z,1.00
2022-10-11T02:31:46.947Z,1.00
2022-10-11T02:34:31.474Z,1.00
2022-10-11T02:37:05.487Z,99.90
2022-10-11T02:40:05.174Z,99.90
2022-10-11T02:42:38.989Z,99.90
2022-10-11T02:45:16.391Z,99.90
2022-10-11T02:47:44.712Z,99.90
2022-10-11T02:50:13.559Z,99.90
2022-10-11T02:52:40.861Z,99.90
2022-10-11T02:55:09.091Z,99.90
2022-10-11T02:57:36.328Z,99.90
2022-10-11T03:00:05.006Z,99.90
2022-10-11T03:02:32.517Z,99.90
2022-10-11T03:05:00.416Z,99.90
2022-10-11T03:07:27.791Z,99.90
2022-10-11T03:09:55.277Z,99.90
2022-10-11T03:12:22.621Z,99.90
2022-10-11T03:14:49.946Z,99.90
2022-10-11T03:17:35.685Z,99.90
2022-10-11T03:20:05.024Z,99.90
2022-10-11T03:22:32.593Z,99.90
2022-10-11T03:25:04.049Z,99.90
2022-10-11T03:27:33.437Z,99.90
2022-10-11T03:30:01.975Z,48.80
2022-10-11T03:32:29.742Z,53.90
2022-10-11T03:34:57.544Z,70.40
2022-10-11T03:37:25.576Z,47.20
2022-10-11T03:39:52.907Z,29.50
2022-10-11T03:42:20.181Z,31.60
2022-10-11T03:44:49.742Z,36.20
2022-10-11T03:47:17.318Z,82.10
2022-10-11T03:49:45.044Z,99.90
2022-10-11T03:52:17.078Z,99.90
2022-10-11T03:54:44.391Z,99.90
2022-10-11T03:57:11.749Z,99.90
2022-10-11T03:59:39.209Z,99.90
2022-10-11T04:02:07.206Z,99.90
2022-10-11T04:04:34.552Z,1.00
2022-10-11T04:07:02.247Z,1.00
2022-10-11T04:09:29.794Z,1.00
2022-10-11T04:11:57.603Z,1.00
2022-10-11T04:14:25.327Z,1.00
2022-10-11T04:16:52.714Z,99.90
2022-10-11T04:19:20.420Z,99.90
2022-10-11T04:21:47.913Z,99.90
2022-10-11T04:24:16.504Z,99.90
2022-10-11T04:26:46.293Z,1.00
2022-10-11T04:29:16.716Z,1.00
2022-10-11T04:31:46.303Z,1.00
2022-10-11T04:34:14.834Z,1.00
2022-10-11T04:36:49.644Z,1.00
2022-10-11T04:39:18.192Z,1.00
2022-10-11T04:41:46.510Z,1.00
2022-10-11T04:44:14.746Z,1.00
2022-10-11T04:46:42.939Z,1.00
2022-10-11T04:49:10.917Z,1.00
2022-10-11T04:51:39.720Z,1.00
2022-10-11T04:54:07.977Z,88.30
2022-10-11T04:56:35.518Z,99.90
2022-10-11T04:59:02.878Z,99.90
2022-10-11T05:01:30.135Z,99.90
2022-10-11T05:03:57.546Z,99.90
2022-10-11T05:06:25.172Z,99.90
2022-10-11T05:08:52.417Z,99.90
2022-10-11T05:11:20.385Z,99.90
2022-10-11T05:13:48.137Z,99.90
2022-10-11T05:16:16.631Z,99.90
2022-10-11T05:18:44.868Z,99.90
2022-10-11T05:21:21.568Z,99.90
2022-10-11T05:23:51.252Z,99.90
2022-10-11T05:26:20.103Z,99.90
2022-10-11T05:28:48.266Z,99.90
2022-10-11T05:31:16.579Z,99.90
2022-10-11T05:33:44.416Z,99.90
2022-10-11T05:36:12.133Z,99.90
2022-10-11T05:38:39.913Z,99.90
2022-10-11T05:41:09.467Z,99.90
2022-10-11T05:43:37.183Z,1.00
2022-10-11T05:46:04.881Z,1.00
2022-10-11T05:48:32.285Z,99.90
2022-10-11T05:51:05.742Z,99.90
2022-10-11T05:53:33.679Z,99.90
2022-10-11T05:56:01.807Z,99.90
2022-10-11T05:58:29.702Z,99.90
2022-10-11T06:00:57.395Z,99.90
2022-10-11T06:03:24.983Z,8.60
2022-10-11T06:05:56.806Z,1.00
2022-10-11T06:08:24.803Z,1.00
2022-10-11T06:10:52.281Z,99.90
2022-10-11T06:13:19.722Z,1.00
2022-10-11T06:15:47.575Z,1.00
2022-10-11T06:18:15.479Z,1.00
2022-10-11T06:20:42.804Z,99.90
2022-10-11T06:23:10.281Z,99.90
2022-10-11T06:25:37.507Z,99.90
2022-10-11T06:28:04.876Z,96.90
2022-10-11T06:30:32.458Z,1.00
2022-10-11T06:33:04.461Z,1.00
2022-10-11T06:35:32.547Z,1.00
2022-10-11T06:38:00.345Z,1.00
2022-10-11T06:40:27.771Z,1.00
2022-10-11T06:42:55.101Z,1.00
2022-10-11T06:45:22.650Z,1.00
2022-10-11T06:47:50.012Z,1.00
2022-10-11T06:50:25.881Z,1.00
2022-10-11T06:53:02.572Z,1.00
2022-10-11T06:55:31.997Z,1.00
2022-10-11T06:58:01.868Z,1.00
2022-10-11T07:00:29.558Z,1.00
2022-10-11T07:02:56.978Z,1.00
2022-10-11T07:05:24.430Z,1.00
2022-10-11T07:07:51.916Z,1.00
2022-10-11T07:10:19.455Z,1.00
2022-10-11T07:12:49.734Z,1.00
2022-10-11T07:15:17.426Z,1.00
2022-10-11T07:17:44.876Z,1.00
2022-10-11T07:20:12.702Z,1.00
2022-10-11T07:22:40.208Z,1.00
2022-10-11T07:25:07.853Z,1.00
2022-10-11T07:27:35.126Z,1.00
2022-10-11T07:30:02.664Z,1.00
2022-10-11T07:32:30.452Z,1.00
2022-10-11T07:35:00.107Z,1.00
2022-10-11T07:37:30.010Z,1.00
2022-10-11T07:39:57.373Z,1.00
2022-10-11T07:42:24.949Z,1.00
2022-10-11T07:44:52.382Z,1.00
2022-10-11T07:47:19.634Z,1.00
2022-10-11T07:49:47.108Z,1.00
2022-10-11T07:52:14.616Z,1.00
2022-10-11T07:54:42.535Z,1.00
2022-10-11T07:57:09.975Z,1.00
2022-10-11T07:59:37.660Z,1.00
2022-10-11T08:02:05.066Z,1.00
2022-10-11T08:04:32.492Z,1.00
2022-10-11T08:06:59.977Z,1.00
2022-10-11T08:09:27.682Z,1.00
2022-10-11T08:14:23.370Z,1.00
2022-10-11T08:16:50.761Z,1.00
2022-10-11T08:19:19.106Z,1.00
2022-10-11T08:21:46.640Z,1.00
2022-10-11T08:24:14.227Z,1.00
2022-10-11T08:26:41.504Z,1.00
2022-10-11T08:29:09.657Z,1.00
2022-10-11T08:31:36.941Z,1.00
2022-10-11T08:34:04.670Z,1.00
2022-10-11T08:36:32.377Z,1.00
2022-10-11T08:39:00.725Z,1.00
2022-10-11T08:41:53.711Z,1.00
2022-10-11T08:45:09.406Z,1.00
2022-10-11T08:47:39.442Z,1.00
2022-10-11T08:50:15.867Z,1.00
2022-10-11T08:52:49.745Z,1.00
2022-10-11T08:55:44.279Z,1.00
2022-10-11T08:58:16.346Z,1.00
2022-10-11T09:00:50.216Z,1.00
2022-10-11T09:03:41.576Z,1.00
2022-10-11T09:06:28.435Z,1.00
2022-10-11T09:09:31.176Z,1.00
2022-10-11T09:12:23.239Z,1.00
2022-10-11T09:15:21.140Z,1.00
2022-10-11T09:17:57.532Z,1.00
2022-10-11T09:20:33.601Z,1.00
2022-10-11T09:23:19.176Z,1.00
2022-10-11T09:25:58.879Z,1.00
2022-10-11T09:28:45.249Z,1.00
2022-10-11T09:31:12.772Z,1.00
2022-10-11T09:33:47.256Z,1.00
2022-10-11T09:36:29.312Z,1.00
2022-10-11T09:39:06.816Z,1.00
2022-10-11T09:41:56.973Z,1.00
2022-10-11T09:44:28.052Z,1.00
2022-10-11T09:46:57.995Z,1.00
2022-10-11T09:49:41.306Z,1.00
2022-10-11T09:52:20.752Z,1.00
2022-10-11T09:54:52.066Z,1.00
2022-10-11T09:57:25.664Z,1.00
2022-10-11T10:00:05.538Z,1.00
2022-10-11T10:02:51.042Z,1.00
2022-10-11T10:05:21.292Z,1.00
2022-10-11T10:08:05.337Z,1.00
2022-10-11T10:10:35.002Z,1.00
2022-10-11T10:13:04.833Z,1.00
2022-10-11T10:15:35.436Z,1.00
2022-10-11T10:18:04.309Z,1.00
2022-10-11T10:20:34.464Z,1.00
2022-10-11T10:23:27.750Z,1.00
2022-10-11T10:26:14.380Z,1.00
2022-10-11T10:29:01.198Z,1.00
2022-10-11T10:34:50.848Z,1.00
2022-10-11T10:37:29.342Z,1.00
2022-10-11T10:40:05.191Z,1.00
2022-10-11T10:42:33.237Z,1.00
2022-10-11T10:45:01.360Z,1.00
2022-10-11T10:47:44.599Z,1.00
2022-10-11T10:50:21.705Z,1.00
2022-10-11T10:52:55.175Z,1.00
2022-10-11T10:56:11.650Z,1.00
2022-10-11T10:58:53.665Z,1.00
2022-10-11T11:01:26.707Z,1.00
2022-10-11T11:04:07.736Z,1.00
2022-10-11T11:07:14.451Z,1.00
2022-10-11T11:09:50.786Z,1.00
2022-10-11T11:12:26.738Z,1.00
2022-10-11T11:15:00.173Z,1.00
2022-10-11T11:17:36.801Z,1.00
2022-10-11T11:20:12.962Z,1.00
2022-10-11T11:23:08.299Z,1.00
2022-10-11T11:25:47.574Z,1.00
2022-10-11T11:28:57.105Z,1.00
2022-10-11T11:31:36.911Z,1.00
2022-10-11T11:34:22.069Z,1.00
2022-10-11T11:36:57.028Z,1.00
2022-10-11T11:39:44.223Z,1.00
2022-10-11T11:42:27.586Z,1.00
2022-10-11T11:44:55.732Z,1.00
2022-10-11T11:47:30.542Z,1.00
2022-10-11T11:50:15.357Z,1.00
2022-10-11T11:52:47.215Z,1.00
2022-10-11T11:55:33.722Z,1.00
2022-10-11T11:58:42.434Z,1.00
2022-10-11T12:01:30.255Z,1.00
2022-10-11T12:04:08.549Z,1.00
2022-10-11T12:06:47.749Z,1.00
2022-10-11T12:09:26.469Z,1.00
2022-10-11T12:11:59.232Z,1.00
2022-10-11T12:14:34.709Z,1.00
2022-10-11T12:17:12.066Z,1.00
2022-10-11T12:20:15.492Z,1.00
2022-10-11T12:22:59.992Z,1.00
2022-10-11T12:25:28.713Z,1.00
2022-10-11T12:27:59.561Z,1.00
2022-10-11T12:30:48.014Z,1.00
2022-10-11T12:33:18.442Z,1.00
2022-10-11T12:35:55.315Z,1.00
2022-10-11T12:38:25.879Z,1.00
2022-10-11T12:41:02.596Z,1.00
2022-10-11T12:43:37.508Z,1.00
2022-10-11T12:46:33.855Z,1.00
2022-10-11T12:49:13.293Z,1.00
2022-10-11T12:51:53.672Z,1.00
2022-10-11T12:54:39.719Z,1.00
2022-10-11T12:57:13.643Z,1.00
2022-10-11T12:59:45.329Z,1.00
2022-10-11T13:02:35.992Z,1.00
2022-10-11T13:05:22.023Z,1.00
2022-10-11T13:07:53.022Z,1.00
2022-10-11T13:10:27.994Z,1.00
2022-10-11T13:13:02.881Z,1.00
2022-10-11T13:21:41.559Z,1.00
2022-10-11T13:24:17.838Z,1.00
2022-10-11T13:26:49.368Z,1.00
2022-10-11T13:29:27.339Z,1.00
2022-10-11T13:31:55.097Z,1.00
2022-10-11T13:34:23.627Z,1.00
2022-10-11T13:36:58.568Z,1.00
2022-10-11T13:39:34.399Z,1.00
2022-10-11T13:42:07.193Z,1.00
2022-10-11T13:44:36.634Z,1.00
2022-10-11T13:47:05.082Z,1.00
2022-10-11T13:49:37.865Z,1.00
2022-10-11T13:52:23.148Z,1.00
2022-10-11T13:54:54.599Z,1.00
2022-10-11T13:57:29.033Z,1.00
2022-10-11T13:59:56.466Z,1.00
2022-10-11T14:02:26.047Z,1.00
2022-10-11T14:04:53.766Z,1.00
2022-10-11T14:07:35.808Z,1.00
2022-10-11T14:10:05.905Z,1.00
2022-10-11T14:12:38.238Z,1.00
2022-10-11T14:15:22.966Z,1.00
2022-10-11T14:17:51.484Z,1.00
2022-10-11T14:20:45.790Z,1.00
2022-10-11T14:23:13.538Z,1.00
2022-10-11T14:25:41.513Z,1.00
2022-10-11T14:28:13.448Z,1.00
2022-10-11T14:30:42.286Z,1.00
2022-10-11T14:33:12.156Z,1.00
2022-10-11T14:35:43.381Z,1.00
2022-10-11T14:38:12.413Z,1.00
2022-10-11T14:40:40.511Z,1.00
2022-10-11T14:43:08.263Z,1.00
2022-10-11T14:45:38.133Z,1.00
2022-10-11T14:48:06.703Z,1.00
2022-10-11T14:50:48.041Z,1.00
2022-10-11T14:53:15.365Z,1.00
2022-10-11T14:55:43.594Z,1.00
2022-10-11T14:58:14.646Z,1.00
2022-10-11T15:00:42.338Z,1.00
2022-10-11T15:03:10.171Z,1.00
2022-10-11T15:05:39.469Z,1.00
2022-10-11T15:08:07.628Z,1.00
2022-10-11T15:10:38.384Z,1.00
2022-10-11T15:13:07.368Z,1.00
2022-10-11T15:15:37.100Z,1.00
2022-10-11T15:18:06.599Z,1.00
2022-10-11T15:20:36.015Z,1.00
2022-10-11T15:23:09.807Z,1.00
2022-10-11T15:25:39.541Z,1.00
2022-10-11T15:28:08.660Z,1.00
2022-10-11T15:30:41.276Z,1.00
2022-10-11T15:33:09.302Z,1.00
2022-10-11T15:35:39.148Z,1.00
2022-10-11T15:38:07.639Z,1.00
2022-10-11T15:40:42.614Z,1.00
2022-10-11T15:43:15.373Z,1.00
2022-10-11T15:45:55.035Z,1.00
2022-10-11T15:48:29.733Z,1.00
2022-10-11T15:50:58.823Z,1.00
2022-10-11T15:53:33.521Z,1.00
2022-10-11T15:56:07.576Z,1.00
2022-10-11T15:58:39.006Z,1.00
2022-10-11T16:01:19.596Z,1.00
2022-10-11T16:03:49.174Z,1.00
2022-10-11T16:06:18.498Z,1.00
2022-10-11T16:08:46.366Z,1.00
2022-10-11T16:11:14.140Z,1.00
2022-10-11T16:13:41.646Z,1.00
2022-10-11T16:16:10.439Z,1.00
2022-10-11T16:18:38.403Z,1.00
2022-10-11T16:21:09.205Z,1.00
2022-10-11T16:23:37.492Z,1.00
2022-10-11T16:26:08.000Z,1.00
2022-10-11T16:28:37.403Z,1.00
2022-10-11T16:31:11.148Z,1.00
2022-10-11T16:33:46.081Z,1.00
2022-10-11T16:36:36.821Z,1.00
2022-10-11T16:39:11.291Z,1.00
2022-10-11T16:41:39.195Z,1.00
2022-10-11T16:44:07.446Z,1.00
2022-10-11T16:46:35.110Z,1.00
2022-10-11T16:49:04.107Z,1.00
2022-10-11T16:51:31.758Z,1.00
2022-10-11T16:54:00.742Z,1.00
2022-10-11T16:56:30.287Z,1.00
2022-10-11T16:58:59.477Z,1.00
2022-10-11T17:01:28.599Z,1.00
2022-10-11T17:03:58.319Z,1.00
2022-10-11T17:06:26.521Z,1.00
2022-10-11T17:08:55.181Z,1.00
2022-10-11T17:11:22.978Z,1.00
2022-10-11T17:13:53.531Z,1.00
2022-10-11T17:16:21.831Z,1.00
2022-10-11T17:18:49.824Z,1.00
2022-10-11T17:21:18.703Z,1.00
2022-10-11T17:23:49.739Z,1.00
2022-10-11T17:26:25.119Z,1.00
2022-10-11T17:28:57.543Z,1.00
2022-10-11T17:31:25.634Z,1.00
2022-10-11T17:33:54.520Z,1.00
2022-10-11T17:36:41.221Z,1.00
2022-10-11T17:39:12.338Z,1.00
2022-10-11T17:41:39.982Z,1.00
2022-10-11T17:44:07.412Z,1.00
2022-10-11T17:46:34.847Z,1.00
2022-10-11T17:49:05.580Z,1.00
2022-10-11T17:51:34.023Z,1.00
2022-10-11T17:54:01.974Z,1.00
2022-10-11T17:56:35.023Z,1.00
2022-10-11T17:59:06.116Z,1.00
2022-10-11T18:01:33.874Z,1.00
2022-10-11T18:04:04.559Z,1.00
2022-10-11T18:06:38.336Z,1.00
2022-10-11T18:09:06.379Z,1.00
2022-10-11T18:11:35.102Z,1.00
2022-10-11T18:14:03.116Z,1.00
2022-10-11T18:16:31.956Z,1.00
2022-10-11T18:18:59.774Z,1.00
2022-10-11T18:21:33.606Z,1.00
2022-10-11T18:24:05.570Z,1.00
2022-10-11T18:26:33.465Z,1.00
2022-10-11T18:29:01.305Z,1.00
2022-10-11T18:31:30.786Z,1.00
2022-10-11T18:33:59.158Z,1.00
2022-10-11T18:36:29.415Z,1.00
2022-10-11T18:39:03.197Z,1.00
2022-10-11T18:41:32.279Z,1.00
2022-10-11T18:44:06.803Z,1.00
2022-10-11T18:46:37.153Z,1.00
2022-10-11T18:49:05.526Z,1.00
2022-10-11T18:51:36.319Z,1.00
2022-10-11T18:54:05.042Z,1.00
2022-10-11T18:56:35.663Z,1.00
2022-10-11T18:59:05.201Z,1.00
2022-10-11T19:01:38.252Z,1.00
2022-10-11T19:04:08.572Z,1.00
2022-10-11T19:06:39.418Z,1.00
2022-10-11T19:09:13.102Z,1.00
2022-10-11T19:11:42.437Z,1.00
2022-10-11T19:14:12.325Z,1.00
2022-10-11T19:16:45.532Z,1.00
2022-10-11T19:19:13.730Z,1.00
2022-10-11T19:21:41.324Z,1.00
2022-10-11T19:24:09.727Z,1.00
2022-10-11T19:26:40.015Z,1.00
2022-10-11T19:29:15.154Z,1.00
2022-10-11T19:31:49.136Z,1.00
2022-10-11T19:34:18.970Z,1.00
2022-10-11T19:36:50.283Z,1.00
2022-10-11T19:39:20.089Z,1.00
2022-10-11T19:41:51.512Z,1.00
2022-10-11T19:44:19.728Z,1.00
2022-10-11T19:46:52.655Z,1.00
2022-10-11T19:49:25.403Z,1.00
2022-10-11T19:56:59.094Z,7.90
2022-10-11T20:09:43.471Z,99.90
2022-10-11T20:27:05.602Z,1.00
2022-10-11T21:04:20.169Z,1.00
2022-10-11T21:09:18.210Z,1.00
2022-10-11T21:14:15.004Z,1.00
2022-10-11T21:16:42.724Z,1.00
2022-10-11T21:19:13.250Z,1.00
2022-10-11T21:21:40.560Z,1.00
2022-10-11T21:29:04.332Z,1.00
2022-10-11T21:34:03.397Z,1.00
2022-10-11T21:36:31.215Z,1.00
2022-10-11T21:38:58.570Z,1.00
2022-10-11T21:41:30.277Z,1.00
2022-10-11T21:43:58.346Z,1.00
2022-10-11T21:46:47.513Z,1.00
2022-10-11T21:49:16.256Z,1.00
2022-10-11T22:01:41.478Z,1.00
2022-10-11T22:04:10.283Z,1.00
2022-10-11T22:06:38.211Z,1.00
2022-10-11T22:09:06.891Z,1.00
2022-10-11T22:11:34.654Z,1.00
2022-10-11T22:14:02.557Z,1.00
2022-10-11T22:16:30.052Z,1.00
2022-10-11T22:18:57.310Z,1.00
2022-10-11T22:21:24.870Z,1.00
2022-10-11T22:23:53.872Z,1.00
2022-10-11T22:26:24.117Z,1.00
2022-10-11T22:28:53.495Z,1.00
2022-10-11T22:31:21.552Z,1.00
2022-10-11T22:33:49.547Z,1.00
2022-10-11T22:36:19.098Z,1.00
2022-10-11T22:38:46.736Z,1.00
2022-10-11T22:41:15.132Z,1.00
2022-10-11T22:43:42.693Z,1.00
2022-10-11T22:46:10.413Z,1.00
2022-10-11T22:48:37.610Z,1.00
2022-10-11T22:51:05.124Z,1.00
2022-10-11T22:53:32.732Z,1.00
2022-10-11T22:56:00.359Z,1.00
2022-10-11T22:58:27.888Z,1.00
2022-10-11T23:00:55.162Z,1.00
2022-10-11T23:03:22.615Z,1.00
2022-10-11T23:05:57.506Z,1.00
2022-10-11T23:08:25.286Z,1.00
2022-10-11T23:10:52.757Z,1.00
2022-10-11T23:13:20.405Z,1.00
2022-10-11T23:15:47.753Z,1.00
2022-10-11T23:18:16.931Z,1.00
2022-10-11T23:20:44.771Z,1.00
2022-10-11T23:23:12.030Z,1.00
2022-10-11T23:25:39.517Z,1.00
2022-10-11T23:30:34.519Z,1.00
2022-10-11T23:33:02.166Z,1.00
2022-10-11T23:35:29.415Z,1.00
2022-10-11T23:37:56.843Z,1.00
2022-10-11T23:40:24.202Z,1.00
2022-10-11T23:42:51.459Z,1.00
2022-10-11T23:45:18.662Z,1.00
2022-10-11T23:47:46.042Z,1.00
2022-10-11T23:50:13.222Z,1.00
2022-10-11T23:52:40.409Z,1.00
2022-10-11T23:55:08.540Z,1.00
2022-10-11T23:57:36.156Z,1.00
